Terminal Aerodrome Forecast
Issued by NWS

Home | Current Version | Previous Version | Text Only | Print | Product List | Glossary On
Versions: 1 2 3 4 5 6 7 8 9 10 11 12 13 14 15 16 17 18
000
FTUS42 KTBW 242121 AAA
TAFRSW
TAF AMD
KRSW 242121Z 2421/2518 30013G19KT P6SM SCT040
     FM250100 28010KT P6SM SCT040
     FM250300 27006KT P6SM FEW040
     FM251600 28010KT P6SM SCT035=

USA.gov is the U.S. government's official web portal to all federal, state and local government web resources and services.